Terminal Aerodrome Forecast
Issued by NWS Wilmington, OH

Current Version | Previous Version | Graphics & Text | Print | Product List | Glossary On
Versions: 1 2 3 4 5 6 7 8 9 10 11 12 13 14 15 16 17
004
FTUS41 KILN 201732
TAFDAY
TAF
KDAY 201732Z 2018/2118 24005KT P6SM SCT030 BKN080
     FM210000 VRB03KT P6SM SCT100
     FM210900 VRB03KT 5SM BR SKC
     FM211300 VRB03KT P6SM FEW035 SCT200=

USA.gov is the U.S. government's official web portal to all federal, state and local government web resources and services.